Time;durP1;ratioP1;P1;durP2;ratioP2;P2;SDS_P1;SDS_P2;PMS_P1;PMS_P2;Temp;Humidity;BMP_temperature;BMP_pressure;BME280_temperature;BME280_humidity;BME280_pressure;Samples;Min_cycle;Max_cycle;Signal;HPM_P1;HPM_P2
2023/05/21 00:00:09;;;;;;;19.90;17.52;;;;;;;;;;5032172;28;20041;-74
2023/05/21 00:02:38;;;;;;;20.70;17.45;;;;;;;;;;5031515;28;20040;-74
2023/05/21 00:05:03;;;;;;;23.48;18.33;;;;;;;;;;5032218;28;20037;-74
2023/05/21 00:07:30;;;;;;;20.80;16.83;;;;;;;;;;5030891;28;20500;-74
2023/05/21 00:09:55;;;;;;;21.75;17.23;;;;;;;;;;5031863;28;20033;-74
2023/05/21 00:12:20;;;;;;;20.42;17.67;;;;;;;;;;5028213;28;20522;-74
2023/05/21 00:14:45;;;;;;;21.85;17.73;;;;;;;;;;5032090;28;20484;-74
2023/05/21 00:17:11;;;;;;;25.20;18.02;;;;;;;;;;5031984;28;20037;-74
2023/05/21 00:19:38;;;;;;;22.33;18.33;;;;;;;;;;5031697;28;20099;-74
2023/05/21 00:22:03;;;;;;;19.63;17.50;;;;;;;;;;5030761;28;20038;-74
2023/05/21 00:24:29;;;;;;;24.95;18.42;;;;;;;;;;5031928;28;20399;-74
2023/05/21 00:26:55;;;;;;;27.38;19.23;;;;;;;;;;5031806;28;20033;-74
2023/05/21 00:29:20;;;;;;;22.00;19.33;;;;;;;;;;5030582;28;20472;-74
2023/05/21 00:31:45;;;;;;;21.25;18.58;;;;;;;;;;5013956;28;20067;-74
2023/05/21 00:34:12;;;;;;;25.63;19.90;;;;;;;;;;5031816;28;20025;-74
2023/05/21 00:36:39;;;;;;;22.05;18.75;;;;;;;;;;5030433;28;20029;-74
2023/05/21 00:39:04;;;;;;;22.65;18.92;;;;;;;;;;5031238;28;20033;-74
2023/05/21 00:41:29;;;;;;;23.50;18.75;;;;;;;;;;5030043;28;20075;-74
2023/05/21 00:43:55;;;;;;;22.92;18.33;;;;;;;;;;5031623;28;20508;-74
2023/05/21 00:46:21;;;;;;;22.40;18.85;;;;;;;;;;5031345;28;20102;-74
2023/05/21 00:48:46;;;;;;;22.52;19.85;;;;;;;;;;5031167;28;20493;-74
2023/05/21 00:51:13;;;;;;;24.15;19.33;;;;;;;;;;5031456;28;20041;-74
2023/05/21 00:53:39;;;;;;;22.58;18.35;;;;;;;;;;5031440;28;20116;-74
2023/05/21 00:56:05;;;;;;;26.23;18.77;;;;;;;;;;5030056;28;20152;-74
2023/05/21 00:58:32;;;;;;;26.75;19.17;;;;;;;;;;5031227;28;20033;-74
2023/05/21 01:00:57;;;;;;;24.75;20.15;;;;;;;;;;5029787;28;20184;-74
2023/05/21 01:03:22;;;;;;;22.08;18.90;;;;;;;;;;5031257;28;20129;-74
2023/05/21 01:05:52;;;;;;;23.73;19.45;;;;;;;;;;5028021;28;20026;-74
2023/05/21 01:08:19;;;;;;;29.27;21.52;;;;;;;;;;5030294;28;20068;-74
2023/05/21 01:10:44;;;;;;;26.13;20.77;;;;;;;;;;5029672;28;20037;-74
2023/05/21 01:13:10;;;;;;;23.02;17.27;;;;;;;;;;5031069;28;20381;-74
2023/05/21 01:15:37;;;;;;;25.17;19.35;;;;;;;;;;5031040;28;20037;-75
2023/05/21 01:18:02;;;;;;;24.65;18.80;;;;;;;;;;5031057;28;20113;-74
2023/05/21 01:20:29;;;;;;;21.20;17.65;;;;;;;;;;5030918;28;20531;-74
2023/05/21 01:22:55;;;;;;;24.45;20.08;;;;;;;;;;5029304;28;20595;-74
2023/05/21 01:25:22;;;;;;;24.50;20.58;;;;;;;;;;5031153;28;20104;-74
2023/05/21 01:27:48;;;;;;;23.92;19.65;;;;;;;;;;5029515;28;20038;-74
2023/05/21 01:30:15;;;;;;;23.60;20.65;;;;;;;;;;5029443;28;20029;-74
2023/05/21 01:32:52;;;;;;;24.80;21.25;;;;;;;;;;5031142;28;20075;-74
2023/05/21 01:35:21;;;;;;;23.92;20.35;;;;;;;;;;5028333;28;20053;-74
2023/05/21 01:37:50;;;;;;;27.58;21.33;;;;;;;;;;5030855;28;20025;-74
2023/05/21 01:40:22;;;;;;;25.95;20.75;;;;;;;;;;5037270;28;20083;-74
2023/05/21 01:42:47;;;;;;;26.13;21.40;;;;;;;;;;5030933;28;20108;-74
2023/05/21 01:45:14;;;;;;;24.13;20.85;;;;;;;;;;5030950;28;20117;-74
2023/05/21 01:47:40;;;;;;;27.23;20.55;;;;;;;;;;5030814;28;20029;-74
2023/05/21 01:50:06;;;;;;;24.65;20.48;;;;;;;;;;5018352;28;20033;-74
2023/05/21 01:52:31;;;;;;;26.08;21.58;;;;;;;;;;5030903;28;20483;-74
2023/05/21 01:54:56;;;;;;;25.90;21.58;;;;;;;;;;5030715;28;20029;-74
2023/05/21 01:57:22;;;;;;;26.65;21.77;;;;;;;;;;5029975;28;20539;-74
2023/05/21 01:59:47;;;;;;;25.45;21.50;;;;;;;;;;5016833;28;20029;-74
2023/05/21 02:02:12;;;;;;;24.52;20.75;;;;;;;;;;5029548;28;20029;-74
2023/05/21 02:04:40;;;;;;;25.52;19.58;;;;;;;;;;5029492;28;20030;-74
2023/05/21 02:07:05;;;;;;;24.13;20.77;;;;;;;;;;5027599;28;20128;-74
2023/05/21 02:09:31;;;;;;;25.92;22.23;;;;;;;;;;5029028;28;20686;-74
2023/05/21 02:11:57;;;;;;;30.00;22.83;;;;;;;;;;5029337;28;20030;-74
2023/05/21 02:14:24;;;;;;;29.23;22.77;;;;;;;;;;5030585;28;20113;-74
2023/05/21 02:16:49;;;;;;;24.90;20.30;;;;;;;;;;5030710;28;20032;-74
2023/05/21 02:19:14;;;;;;;24.90;21.15;;;;;;;;;;5028962;28;20029;-74
2023/05/21 02:21:40;;;;;;;25.33;22.02;;;;;;;;;;5029332;28;20021;-74
2023/05/21 02:24:05;;;;;;;26.58;21.25;;;;;;;;;;5031033;28;20030;-74
2023/05/21 02:26:30;;;;;;;28.95;21.98;;;;;;;;;;5028169;28;20060;-74
2023/05/21 02:28:56;;;;;;;27.00;21.92;;;;;;;;;;5032466;28;20112;-74
2023/05/21 02:31:21;;;;;;;24.73;20.70;;;;;;;;;;5034081;28;20036;-74
2023/05/21 02:33:46;;;;;;;27.23;22.80;;;;;;;;;;5016240;28;20038;-74
2023/05/21 02:36:11;;;;;;;25.02;21.00;;;;;;;;;;5033077;28;20082;-74
2023/05/21 02:38:39;;;;;;;28.00;21.30;;;;;;;;;;5032385;28;20025;-74
2023/05/21 02:41:04;;;;;;;25.95;20.52;;;;;;;;;;5033520;28;20480;-74
2023/05/21 02:43:30;;;;;;;25.95;21.50;;;;;;;;;;5031503;28;20025;-74
2023/05/21 02:45:55;;;;;;;27.30;23.20;;;;;;;;;;5033789;28;20080;-74
2023/05/21 02:48:20;;;;;;;28.83;24.08;;;;;;;;;;5031667;28;20064;-74
2023/05/21 02:50:45;;;;;;;26.25;22.45;;;;;;;;;;5033523;28;20095;-74
2023/05/21 02:53:11;;;;;;;30.17;23.55;;;;;;;;;;5032394;28;20083;-74
2023/05/21 02:55:36;;;;;;;27.58;21.67;;;;;;;;;;5032149;28;20030;-74
2023/05/21 02:58:01;;;;;;;29.00;23.17;;;;;;;;;;5033370;28;20036;-74
2023/05/21 03:00:27;;;;;;;29.95;23.52;;;;;;;;;;5032042;28;20030;-74
2023/05/21 03:02:52;;;;;;;32.72;24.20;;;;;;;;;;5029962;28;20022;-74
2023/05/21 03:05:18;;;;;;;29.13;23.67;;;;;;;;;;5032103;28;20025;-74
2023/05/21 03:07:43;;;;;;;27.15;23.52;;;;;;;;;;5029838;28;20604;-74
2023/05/21 03:10:09;;;;;;;25.30;21.92;;;;;;;;;;5030783;28;20056;-75
2023/05/21 03:12:35;;;;;;;28.92;24.13;;;;;;;;;;5042919;23;20045;-76
2023/05/21 03:15:00;;;;;;;30.35;23.90;;;;;;;;;;5021760;28;20116;-77
2023/05/21 03:17:26;;;;;;;29.50;23.35;;;;;;;;;;5023770;28;20026;-76
2023/05/21 03:19:53;;;;;;;27.67;22.25;;;;;;;;;;5019997;28;20490;-76
2023/05/21 03:22:18;;;;;;;27.38;21.55;;;;;;;;;;5032593;28;20038;-76
2023/05/21 03:24:45;;;;;;;26.60;22.17;;;;;;;;;;5023274;28;20120;-76
2023/05/21 03:27:10;;;;;;;28.55;24.27;;;;;;;;;;5022128;28;20034;-76
2023/05/21 03:29:36;;;;;;;28.38;23.05;;;;;;;;;;5023585;28;20084;-77
2023/05/21 03:32:02;;;;;;;31.35;25.00;;;;;;;;;;5023055;28;20022;-77
2023/05/21 03:34:29;;;;;;;27.95;23.55;;;;;;;;;;5022282;28;20030;-77
2023/05/21 03:36:54;;;;;;;32.35;26.35;;;;;;;;;;5006206;28;20033;-77
2023/05/21 03:39:20;;;;;;;29.83;24.67;;;;;;;;;;5020668;28;20052;-76
2023/05/21 03:41:45;;;;;;;30.73;25.38;;;;;;;;;;5023541;28;20022;-77
2023/05/21 03:44:21;;;;;;;29.65;23.92;;;;;;;;;;5022219;28;20739;-77
2023/05/21 03:46:58;;;;;;;28.27;23.73;;;;;;;;;;5024888;28;20040;-77
2023/05/21 03:49:26;;;;;;;28.40;23.15;;;;;;;;;;5022496;28;20348;-76
2023/05/21 03:51:54;;;;;;;28.15;23.70;;;;;;;;;;5020575;28;20042;-77
2023/05/21 03:54:20;;;;;;;26.52;22.75;;;;;;;;;;5023161;28;20030;-76
2023/05/21 03:56:47;;;;;;;29.48;22.35;;;;;;;;;;5023683;28;20453;-77
2023/05/21 03:59:12;;;;;;;29.75;24.10;;;;;;;;;;5023090;28;20115;-77
2023/05/21 04:01:38;;;;;;;29.92;23.40;;;;;;;;;;5022326;28;20113;-76
2023/05/21 04:04:04;;;;;;;30.58;25.60;;;;;;;;;;5021103;28;20034;-76
2023/05/21 04:06:30;;;;;;;29.05;24.73;;;;;;;;;;5023146;28;20494;-76
2023/05/21 04:08:55;;;;;;;30.63;24.85;;;;;;;;;;5020575;28;20025;-76
2023/05/21 04:11:21;;;;;;;29.85;25.38;;;;;;;;;;5019952;28;20033;-77
2023/05/21 04:13:46;;;;;;;30.13;24.65;;;;;;;;;;5026945;28;20049;-77
2023/05/21 04:16:13;;;;;;;33.15;25.83;;;;;;;;;;5024249;28;20061;-77
2023/05/21 04:18:40;;;;;;;30.77;25.25;;;;;;;;;;5022862;28;20030;-77
2023/05/21 04:21:06;;;;;;;30.02;24.50;;;;;;;;;;5038841;28;20061;-77
2023/05/21 04:23:32;;;;;;;28.15;23.58;;;;;;;;;;5038608;28;20029;-77
2023/05/21 04:25:57;;;;;;;30.63;25.08;;;;;;;;;;5019389;28;20026;-77
2023/05/21 04:28:23;;;;;;;27.92;23.48;;;;;;;;;;5024953;28;20042;-77
2023/05/21 04:30:48;;;;;;;30.92;24.02;;;;;;;;;;5039003;28;20116;-77
2023/05/21 04:33:16;;;;;;;31.58;24.65;;;;;;;;;;5019024;28;20040;-77
2023/05/21 04:35:45;;;;;;;32.53;26.00;;;;;;;;;;5026341;28;20491;-76
2023/05/21 04:38:11;;;;;;;34.78;27.95;;;;;;;;;;5020921;28;20025;-77
2023/05/21 04:40:36;;;;;;;32.67;25.67;;;;;;;;;;5022204;28;20400;-77
2023/05/21 04:43:02;;;;;;;28.63;23.75;;;;;;;;;;5021719;28;20033;-77
2023/05/21 04:45:28;;;;;;;31.35;24.75;;;;;;;;;;5019446;28;20030;-77
2023/05/21 04:47:53;;;;;;;28.70;25.35;;;;;;;;;;5020915;28;20036;-77
2023/05/21 04:50:19;;;;;;;30.08;24.65;;;;;;;;;;5021841;28;20030;-77
2023/05/21 04:52:44;;;;;;;32.20;27.10;;;;;;;;;;5019608;28;20034;-77
2023/05/21 04:55:09;;;;;;;30.25;24.92;;;;;;;;;;5021023;28;20033;-77
2023/05/21 04:57:35;;;;;;;31.17;25.45;;;;;;;;;;5018793;28;20022;-77
2023/05/21 05:00:00;;;;;;;29.92;24.88;;;;;;;;;;5022924;28;20475;-76
2023/05/21 05:02:29;;;;;;;26.90;23.95;;;;;;;;;;5022122;28;20389;-77
2023/05/21 05:04:54;;;;;;;28.95;24.23;;;;;;;;;;5021309;28;20043;-77
2023/05/21 05:07:20;;;;;;;28.38;24.48;;;;;;;;;;5022005;28;20030;-77
2023/05/21 05:09:45;;;;;;;31.85;26.23;;;;;;;;;;5019567;28;20035;-77
2023/05/21 05:12:11;;;;;;;32.67;24.38;;;;;;;;;;5020428;28;20488;-77
2023/05/21 05:14:36;;;;;;;31.05;26.92;;;;;;;;;;5019640;28;20040;-77
2023/05/21 05:17:01;;;;;;;31.98;26.48;;;;;;;;;;5020538;28;20030;-77
2023/05/21 05:19:27;;;;;;;30.58;25.73;;;;;;;;;;5019202;28;20022;-76
2023/05/21 05:21:52;;;;;;;31.65;26.15;;;;;;;;;;5020579;28;20034;-77
2023/05/21 05:24:18;;;;;;;28.95;25.70;;;;;;;;;;5025002;28;20065;-77
2023/05/21 05:26:44;;;;;;;29.42;25.95;;;;;;;;;;5018475;28;20061;-77
2023/05/21 05:29:09;;;;;;;31.02;25.83;;;;;;;;;;5017373;28;20036;-77
2023/05/21 05:31:35;;;;;;;28.63;24.45;;;;;;;;;;5021901;28;20036;-77
2023/05/21 05:34:00;;;;;;;31.25;25.52;;;;;;;;;;5002283;28;20607;-77
2023/05/21 05:36:27;;;;;;;30.02;24.63;;;;;;;;;;5022046;28;20416;-77
2023/05/21 05:38:52;;;;;;;27.92;24.52;;;;;;;;;;5021130;28;20026;-77
2023/05/21 05:41:17;;;;;;;28.17;24.10;;;;;;;;;;5020116;28;20414;-76
2023/05/21 05:43:43;;;;;;;28.42;24.73;;;;;;;;;;5021600;28;20064;-77
2023/05/21 05:46:08;;;;;;;25.25;22.45;;;;;;;;;;5021789;28;20029;-77
2023/05/21 05:48:33;;;;;;;29.15;25.08;;;;;;;;;;5019293;28;20038;-77
2023/05/21 05:51:00;;;;;;;26.70;23.02;;;;;;;;;;5017579;28;20032;-78
2023/05/21 05:53:26;;;;;;;29.67;25.08;;;;;;;;;;5021968;28;20037;-78
2023/05/21 05:55:51;;;;;;;26.95;24.00;;;;;;;;;;5017988;28;20034;-77
2023/05/21 05:58:17;;;;;;;26.27;23.42;;;;;;;;;;5026449;28;20021;-77
2023/05/21 06:00:51;;;;;;;26.63;23.77;;;;;;;;;;5022138;28;20022;-77
2023/05/21 06:03:17;;;;;;;26.52;23.45;;;;;;;;;;5023658;28;20384;-77
2023/05/21 06:05:43;;;;;;;27.63;23.50;;;;;;;;;;5031966;28;20030;-77
2023/05/21 06:08:09;;;;;;;25.67;22.60;;;;;;;;;;5023274;28;20077;-77
2023/05/21 06:10:34;;;;;;;27.88;23.27;;;;;;;;;;5024290;28;20033;-77
2023/05/21 06:12:59;;;;;;;24.20;21.67;;;;;;;;;;5023257;28;20041;-77
2023/05/21 06:15:25;;;;;;;26.30;23.50;;;;;;;;;;5025090;28;20090;-77
2023/05/21 06:17:50;;;;;;;25.73;22.35;;;;;;;;;;5023409;28;20116;-77
2023/05/21 06:20:16;;;;;;;23.98;20.98;;;;;;;;;;5005843;28;20144;-77
2023/05/21 06:22:41;;;;;;;25.92;22.02;;;;;;;;;;5027571;28;20030;-77
2023/05/21 06:25:09;;;;;;;23.00;20.52;;;;;;;;;;5022400;28;21083;-77
2023/05/21 06:27:36;;;;;;;23.63;20.48;;;;;;;;;;5020958;28;20033;-77
2023/05/21 06:30:03;;;;;;;26.15;21.73;;;;;;;;;;5032124;28;20052;-77
2023/05/21 06:32:29;;;;;;;23.90;21.30;;;;;;;;;;5024726;28;20026;-77
2023/05/21 06:34:55;;;;;;;24.52;21.25;;;;;;;;;;5022314;28;20038;-77
2023/05/21 06:37:23;;;;;;;23.77;21.23;;;;;;;;;;5024645;28;20029;-78
2023/05/21 06:39:48;;;;;;;23.90;21.23;;;;;;;;;;5020937;28;20061;-77
2023/05/21 06:42:14;;;;;;;23.02;20.48;;;;;;;;;;5010485;28;20045;-78
2023/05/21 06:44:51;;;;;;;21.63;19.42;;;;;;;;;;5023061;28;20526;-77
2023/05/21 06:47:34;;;;;;;23.90;21.42;;;;;;;;;;5028231;28;20037;-77
2023/05/21 06:50:00;;;;;;;24.45;20.80;;;;;;;;;;5027680;28;20029;-77
2023/05/21 06:52:27;;;;;;;22.23;19.90;;;;;;;;;;5027339;28;20099;-77
2023/05/21 06:54:52;;;;;;;22.58;20.20;;;;;;;;;;5021779;28;20030;-77
2023/05/21 06:57:18;;;;;;;22.75;20.38;;;;;;;;;;5005505;28;20030;-77
2023/05/21 06:59:44;;;;;;;22.25;19.92;;;;;;;;;;5024044;28;20034;-77
2023/05/21 07:02:09;;;;;;;24.42;21.90;;;;;;;;;;5030471;28;20036;-77
2023/05/21 07:04:34;;;;;;;21.70;19.42;;;;;;;;;;5024431;28;20026;-77
2023/05/21 07:07:00;;;;;;;21.77;19.60;;;;;;;;;;5022640;28;20548;-77
2023/05/21 07:09:25;;;;;;;20.45;18.15;;;;;;;;;;5021804;28;20030;-77
2023/05/21 07:11:52;;;;;;;26.58;20.08;;;;;;;;;;5008210;28;20025;-77
2023/05/21 07:14:17;;;;;;;21.67;19.55;;;;;;;;;;5025733;28;20041;-77
2023/05/21 07:16:42;;;;;;;21.58;19.30;;;;;;;;;;5022198;28;20026;-78
2023/05/21 07:19:08;;;;;;;22.27;19.98;;;;;;;;;;5021654;28;20037;-77
2023/05/21 07:21:33;;;;;;;21.48;19.27;;;;;;;;;;5023935;28;20057;-77
2023/05/21 07:23:59;;;;;;;21.50;18.75;;;;;;;;;;5022451;28;20022;-77
2023/05/21 07:26:25;;;;;;;20.95;18.75;;;;;;;;;;5022257;28;20505;-77
2023/05/21 07:28:50;;;;;;;20.67;18.58;;;;;;;;;;5023568;28;20116;-77
2023/05/21 07:31:16;;;;;;;21.05;19.00;;;;;;;;;;5021116;28;20045;-77
2023/05/21 07:33:45;;;;;;;21.67;18.58;;;;;;;;;;5021265;28;20018;-77
2023/05/21 07:36:11;;;;;;;20.38;18.33;;;;;;;;;;5043503;28;20036;-78
2023/05/21 07:38:39;;;;;;;21.15;19.05;;;;;;;;;;5023597;28;20029;-77
2023/05/21 07:41:05;;;;;;;19.73;17.73;;;;;;;;;;5019620;28;20036;-78
2023/05/21 07:43:31;;;;;;;18.48;16.67;;;;;;;;;;5023428;28;20029;-77
2023/05/21 07:45:56;;;;;;;20.95;18.85;;;;;;;;;;5019910;28;20562;-78
2023/05/21 07:48:21;;;;;;;18.50;16.55;;;;;;;;;;5026987;28;20136;-77
2023/05/21 07:50:53;;;;;;;18.23;16.33;;;;;;;;;;5020573;28;20458;-77
2023/05/21 07:53:18;;;;;;;21.27;17.67;;;;;;;;;;5005675;28;20125;-77
2023/05/21 07:55:46;;;;;;;17.77;16.00;;;;;;;;;;5020722;28;20065;-77
2023/05/21 07:58:14;;;;;;;17.10;15.40;;;;;;;;;;5023044;28;20021;-77
2023/05/21 08:00:43;;;;;;;17.50;15.73;;;;;;;;;;5021486;28;20026;-77
2023/05/21 08:03:10;;;;;;;17.95;16.15;;;;;;;;;;5020475;28;20488;-77
2023/05/21 08:05:36;;;;;;;19.17;17.27;;;;;;;;;;5006008;28;20029;-77
2023/05/21 08:08:01;;;;;;;18.65;16.73;;;;;;;;;;5020008;28;20095;-78
2023/05/21 08:10:27;;;;;;;18.30;16.10;;;;;;;;;;5021943;28;20034;-77
2023/05/21 08:12:52;;;;;;;19.85;17.60;;;;;;;;;;5022054;28;20088;-78
2023/05/21 08:15:19;;;;;;;18.63;16.73;;;;;;;;;;5030400;28;20026;-78
2023/05/21 08:17:44;;;;;;;17.83;16.00;;;;;;;;;;5019343;28;20030;-77
2023/05/21 08:20:12;;;;;;;17.92;15.90;;;;;;;;;;5024290;28;20022;-78
2023/05/21 08:22:37;;;;;;;17.27;15.48;;;;;;;;;;5022182;28;20041;-77
2023/05/21 08:25:03;;;;;;;17.30;15.50;;;;;;;;;;5022767;28;20034;-77
2023/05/21 08:27:28;;;;;;;16.73;15.05;;;;;;;;;;5019825;28;20411;-78
2023/05/21 08:29:54;;;;;;;15.35;13.73;;;;;;;;;;5022293;28;20030;-78
2023/05/21 08:32:19;;;;;;;14.80;13.15;;;;;;;;;;5022641;28;20033;-78
2023/05/21 08:34:45;;;;;;;15.68;13.40;;;;;;;;;;5020650;28;20026;-77
2023/05/21 08:37:27;;;;;;;18.80;13.23;;;;;;;;;;5019603;28;20026;-77
2023/05/21 08:40:05;;;;;;;14.30;12.88;;;;;;;;;;5022562;28;20033;-77
2023/05/21 08:42:38;;;;;;;15.20;13.32;;;;;;;;;;5024726;28;20029;-77
2023/05/21 08:45:08;;;;;;;16.05;14.45;;;;;;;;;;5004434;28;20700;-77
2023/05/21 08:47:34;;;;;;;15.00;13.45;;;;;;;;;;5019819;28;20034;-77
2023/05/21 08:50:06;;;;;;;16.10;13.90;;;;;;;;;;5005011;28;20025;-78
2023/05/21 08:52:32;;;;;;;17.38;14.18;;;;;;;;;;5018528;28;20095;-77
2023/05/21 08:54:57;;;;;;;15.75;13.18;;;;;;;;;;5022409;28;20439;-78
2023/05/21 08:57:24;;;;;;;16.40;13.18;;;;;;;;;;5021992;28;20029;-77
2023/05/21 08:59:49;;;;;;;14.68;13.18;;;;;;;;;;5021981;28;20026;-77
2023/05/21 09:02:23;;;;;;;15.88;13.32;;;;;;;;;;5020785;28;20025;-77
2023/05/21 09:04:55;;;;;;;15.80;13.07;;;;;;;;;;5022258;28;20538;-77
2023/05/21 09:07:21;;;;;;;14.45;12.82;;;;;;;;;;5020957;28;20032;-77
2023/05/21 09:10:12;;;;;;;;;;;;;;;;;;5022869;28;20145;-78
2023/05/21 09:12:39;;;;;;;15.07;13.52;;;;;;;;;;5029679;23;20015;-76
2023/05/21 09:15:04;;;;;;;15.82;14.23;;;;;;;;;;5009834;28;20530;-76
2023/05/21 09:17:33;;;;;;;16.42;14.73;;;;;;;;;;5004855;28;20029;-76
2023/05/21 09:20:11;;;;;;;15.75;13.68;;;;;;;;;;4999396;28;20037;-76
2023/05/21 09:22:39;;;;;;;15.73;12.90;;;;;;;;;;5020616;28;20534;-77
2023/05/21 09:25:06;;;;;;;15.13;13.63;;;;;;;;;;5020844;28;20034;-76
2023/05/21 09:27:32;;;;;;;14.55;13.05;;;;;;;;;;4999370;28;20029;-76
2023/05/21 09:29:57;;;;;;;15.55;14.05;;;;;;;;;;5018861;28;20506;-77
2023/05/21 09:32:23;;;;;;;15.43;13.93;;;;;;;;;;5003433;28;20029;-76
2023/05/21 09:34:48;;;;;;;15.45;13.85;;;;;;;;;;5006378;28;20515;-77
2023/05/21 09:37:14;;;;;;;16.73;14.93;;;;;;;;;;5007701;28;20488;-76
2023/05/21 09:39:42;;;;;;;15.05;13.40;;;;;;;;;;5006476;28;20282;-76
2023/05/21 09:42:07;;;;;;;15.18;13.68;;;;;;;;;;5008084;28;20026;-75
2023/05/21 09:44:33;;;;;;;14.85;13.40;;;;;;;;;;5006529;28;20033;-75
2023/05/21 09:46:58;;;;;;;15.95;14.35;;;;;;;;;;5007575;28;20033;-74
2023/05/21 09:49:25;;;;;;;16.10;14.40;;;;;;;;;;5008099;28;20026;-75
2023/05/21 09:51:54;;;;;;;16.42;13.70;;;;;;;;;;5005907;28;20033;-74
2023/05/21 09:54:20;;;;;;;16.23;14.48;;;;;;;;;;5009014;28;20040;-75
2023/05/21 09:56:45;;;;;;;15.95;14.15;;;;;;;;;;4993453;28;20030;-75
2023/05/21 09:59:10;;;;;;;28.25;15.07;;;;;;;;;;5025789;28;20068;-75
2023/05/21 10:01:36;;;;;;;14.67;12.77;;;;;;;;;;5024133;28;20030;-74
2023/05/21 10:04:03;;;;;;;15.20;13.50;;;;;;;;;;5026497;28;20326;-74
2023/05/21 10:06:30;;;;;;;14.70;13.20;;;;;;;;;;5023284;28;20040;-75
2023/05/21 10:08:56;;;;;;;15.75;14.07;;;;;;;;;;5025469;28;20029;-75
2023/05/21 10:11:23;;;;;;;18.55;13.48;;;;;;;;;;5023487;28;20096;-75
2023/05/21 10:13:54;;;;;;;15.27;13.60;;;;;;;;;;5025086;28;20045;-75
2023/05/21 10:16:19;;;;;;;14.10;12.70;;;;;;;;;;5024658;28;20030;-75
2023/05/21 10:18:45;;;;;;;15.47;13.87;;;;;;;;;;5024780;28;20064;-75
2023/05/21 10:21:11;;;;;;;14.95;13.10;;;;;;;;;;5023978;28;20746;-75
2023/05/21 10:23:37;;;;;;;15.32;13.82;;;;;;;;;;5024145;28;20037;-75
2023/05/21 10:26:02;;;;;;;14.05;12.52;;;;;;;;;;5022286;28;20038;-75
2023/05/21 10:28:28;;;;;;;15.27;12.23;;;;;;;;;;5021974;28;20615;-75
2023/05/21 10:30:54;;;;;;;13.93;12.52;;;;;;;;;;5023111;28;20037;-75
2023/05/21 10:33:21;;;;;;;13.25;11.85;;;;;;;;;;5025664;28;20510;-75
2023/05/21 10:35:48;;;;;;;13.77;12.15;;;;;;;;;;5025439;28;20447;-75
2023/05/21 10:38:15;;;;;;;14.65;12.95;;;;;;;;;;5024774;28;20036;-75
2023/05/21 10:40:40;;;;;;;15.55;12.57;;;;;;;;;;5021885;28;20559;-75
2023/05/21 10:43:31;;;;;;;14.18;12.68;;;;;;;;;;5025724;28;20033;-75
2023/05/21 10:45:59;;;;;;;14.75;12.25;;;;;;;;;;4980681;28;20416;-75
2023/05/21 10:48:48;;;;;;;13.63;12.23;;;;;;;;;;5018082;28;20029;-75
2023/05/21 10:51:17;;;;;;;13.48;11.27;;;;;;;;;;4976413;28;20500;-75
2023/05/21 10:54:05;;;;;;;15.50;12.48;;;;;;;;;;5025405;28;20043;-75
2023/05/21 10:56:33;;;;;;;13.88;12.43;;;;;;;;;;5023040;28;20123;-75
2023/05/21 10:59:01;;;;;;;12.85;11.55;;;;;;;;;;5022734;28;20056;-75
2023/05/21 11:01:32;;;;;;;13.10;11.68;;;;;;;;;;5021594;28;20069;-75
2023/05/21 11:03:58;;;;;;;13.40;12.07;;;;;;;;;;5024750;28;20575;-75
2023/05/21 11:06:26;;;;;;;13.05;11.15;;;;;;;;;;5023049;28;20116;-75
2023/05/21 11:08:52;;;;;;;12.43;11.13;;;;;;;;;;5022714;28;20026;-75
2023/05/21 11:11:36;;;;;;;11.95;10.45;;;;;;;;;;5022387;28;20037;-75
2023/05/21 11:14:21;;;;;;;12.60;11.40;;;;;;;;;;5018161;28;20046;-75
2023/05/21 11:16:47;;;;;;;12.75;11.45;;;;;;;;;;5022049;28;20044;-75
2023/05/21 11:19:15;;;;;;;11.67;10.47;;;;;;;;;;5024279;28;20030;-75
2023/05/21 11:21:40;;;;;;;13.05;11.57;;;;;;;;;;5021631;28;20084;-75
2023/05/21 11:24:07;;;;;;;13.37;11.97;;;;;;;;;;5024918;28;20426;-75
2023/05/21 11:26:47;;;;;;;14.02;11.25;;;;;;;;;;5021503;28;20521;-75
2023/05/21 11:29:13;;;;;;;14.37;11.17;;;;;;;;;;5021734;28;20037;-75
2023/05/21 11:31:43;;;;;;;12.25;11.02;;;;;;;;;;5021820;28;20111;-75
2023/05/21 11:34:13;;;;;;;12.70;11.40;;;;;;;;;;5006310;28;20487;-75
2023/05/21 11:36:48;;;;;;;12.05;10.70;;;;;;;;;;5020691;28;20033;-75
2023/05/21 11:39:16;;;;;;;12.05;10.77;;;;;;;;;;5017986;28;20018;-75
2023/05/21 11:41:51;;;;;;;12.00;10.90;;;;;;;;;;5023340;28;20053;-75
2023/05/21 11:44:16;;;;;;;11.30;10.20;;;;;;;;;;5023714;28;20034;-75
2023/05/21 11:46:42;;;;;;;11.82;10.35;;;;;;;;;;5023949;28;20025;-75
2023/05/21 11:49:08;;;;;;;12.75;10.60;;;;;;;;;;5021494;28;20038;-75
2023/05/21 11:51:33;;;;;;;10.93;9.80;;;;;;;;;;5003665;28;20034;-75
2023/05/21 11:53:58;;;;;;;10.82;9.82;;;;;;;;;;5023683;28;20063;-75
2023/05/21 11:56:24;;;;;;;10.93;9.93;;;;;;;;;;5020880;28;20030;-75
2023/05/21 11:58:54;;;;;;;11.18;10.00;;;;;;;;;;5019780;28;20511;-75
2023/05/21 12:01:26;;;;;;;11.23;10.13;;;;;;;;;;5018102;28;20021;-75
2023/05/21 12:03:51;;;;;;;11.48;10.35;;;;;;;;;;5003699;28;20519;-75
2023/05/21 12:06:17;;;;;;;13.37;9.63;;;;;;;;;;5023291;28;20110;-75
2023/05/21 12:08:42;;;;;;;11.40;10.30;;;;;;;;;;5021292;28;20280;-75
2023/05/21 12:11:07;;;;;;;10.90;9.80;;;;;;;;;;5022991;28;20526;-75
2023/05/21 12:13:33;;;;;;;10.05;9.05;;;;;;;;;;5004138;28;20040;-75
2023/05/21 12:15:58;;;;;;;10.10;9.20;;;;;;;;;;5021772;28;20037;-75
2023/05/21 12:18:24;;;;;;;11.55;9.35;;;;;;;;;;5023034;28;20038;-75
2023/05/21 12:20:52;;;;;;;10.43;9.23;;;;;;;;;;5022364;28;20033;-75
2023/05/21 12:23:23;;;;;;;10.63;9.52;;;;;;;;;;5023705;28;20029;-76
2023/05/21 12:25:49;;;;;;;10.15;9.15;;;;;;;;;;5005374;28;20132;-76
2023/05/21 12:28:15;;;;;;;9.45;8.50;;;;;;;;;;5019973;28;20033;-75
2023/05/21 12:30:40;;;;;;;10.98;9.88;;;;;;;;;;5002952;28;20034;-75
2023/05/21 12:33:05;;;;;;;11.27;10.05;;;;;;;;;;5023079;28;20017;-75
2023/05/21 12:35:31;;;;;;;12.88;9.35;;;;;;;;;;5020514;28;20049;-75
2023/05/21 12:37:56;;;;;;;10.65;9.55;;;;;;;;;;5005340;28;20120;-75
2023/05/21 12:40:32;;;;;;;10.52;8.85;;;;;;;;;;5020105;28;20037;-76
2023/05/21 12:42:58;;;;;;;10.13;9.10;;;;;;;;;;5000483;28;20030;-76
2023/05/21 12:45:23;;;;;;;9.47;8.47;;;;;;;;;;5022371;28;20033;-76
2023/05/21 12:47:54;;;;;;;8.95;8.07;;;;;;;;;;5020883;28;20030;-75
2023/05/21 12:50:20;;;;;;;9.93;8.73;;;;;;;;;;5021287;28;20033;-76
2023/05/21 12:52:45;;;;;;;9.25;8.27;;;;;;;;;;5021760;28;20022;-75
2023/05/21 12:55:12;;;;;;;10.20;8.73;;;;;;;;;;5021435;28;20037;-75
2023/05/21 12:57:37;;;;;;;9.82;8.32;;;;;;;;;;5019512;28;20037;-75
2023/05/21 13:00:05;;;;;;;9.13;8.23;;;;;;;;;;5021853;28;20077;-75
2023/05/21 13:02:31;;;;;;;10.70;8.05;;;;;;;;;;5020436;28;20038;-76
2023/05/21 13:04:57;;;;;;;9.77;7.22;;;;;;;;;;5022444;28;20494;-75
2023/05/21 13:07:23;;;;;;;9.43;7.65;;;;;;;;;;5020035;28;20052;-76
2023/05/21 13:09:51;;;;;;;8.25;7.45;;;;;;;;;;5022272;28;20116;-75
2023/05/21 13:12:17;;;;;;;9.25;8.23;;;;;;;;;;5017859;28;20036;-75
2023/05/21 13:14:42;;;;;;;9.65;8.30;;;;;;;;;;5014317;28;20411;-75
2023/05/21 13:17:07;;;;;;;10.87;8.23;;;;;;;;;;5023156;28;20087;-75
2023/05/21 13:19:32;;;;;;;9.13;8.23;;;;;;;;;;5019126;28;20107;-75
2023/05/21 13:21:58;;;;;;;10.25;8.50;;;;;;;;;;5022866;28;20308;-75
2023/05/21 13:24:23;;;;;;;9.50;8.07;;;;;;;;;;5019480;28;20030;-75
2023/05/21 13:26:48;;;;;;;11.43;8.60;;;;;;;;;;5019370;28;20261;-75
2023/05/21 13:29:13;;;;;;;9.40;7.85;;;;;;;;;;5019393;28;20087;-75
2023/05/21 13:31:42;;;;;;;9.13;8.03;;;;;;;;;;5020911;28;20112;-75
2023/05/21 13:34:07;;;;;;;8.77;7.88;;;;;;;;;;5022321;28;20611;-75
2023/05/21 13:36:32;;;;;;;10.90;8.07;;;;;;;;;;5020186;28;20140;-75
2023/05/21 13:38:58;;;;;;;11.57;8.33;;;;;;;;;;5021994;28;20844;-75
2023/05/21 13:41:23;;;;;;;10.10;7.93;;;;;;;;;;5020161;28;20072;-75
2023/05/21 13:43:48;;;;;;;12.83;8.30;;;;;;;;;;5020529;28;20793;-75
2023/05/21 13:46:13;;;;;;;11.93;8.37;;;;;;;;;;5021777;28;20960;-75
2023/05/21 13:48:39;;;;;;;8.77;7.10;;;;;;;;;;5020211;28;20022;-75
2023/05/21 13:51:04;;;;;;;11.73;8.00;;;;;;;;;;5021423;28;20766;-75
2023/05/21 13:53:29;;;;;;;10.82;7.88;;;;;;;;;;5022506;28;20037;-75
2023/05/21 13:55:54;;;;;;;9.33;8.43;;;;;;;;;;5020456;28;20084;-75
2023/05/21 13:58:20;;;;;;;9.10;8.20;;;;;;;;;;5019904;28;20496;-75
2023/05/21 14:00:45;;;;;;;10.33;8.23;;;;;;;;;;5018447;28;20698;-75
2023/05/21 14:03:11;;;;;;;8.27;7.37;;;;;;;;;;5020296;28;20283;-75
2023/05/21 14:05:36;;;;;;;7.93;7.20;;;;;;;;;;5021134;28;20037;-75
2023/05/21 14:08:02;;;;;;;8.45;7.53;;;;;;;;;;5020553;28;20041;-75
2023/05/21 14:10:27;;;;;;;9.18;7.32;;;;;;;;;;5020703;28;20022;-75
2023/05/21 14:12:52;;;;;;;8.47;7.67;;;;;;;;;;5020291;28;20045;-75
2023/05/21 14:15:17;;;;;;;8.10;7.30;;;;;;;;;;5022135;28;20030;-75
2023/05/21 14:17:42;;;;;;;8.98;8.07;;;;;;;;;;5020634;28;20291;-75